createdAt,value
2022-11-05T00:01:29.835Z,92.44
2022-11-05T00:04:50.984Z,91.94
2022-11-05T00:08:12.621Z,92.18
2022-11-05T00:11:18.239Z,92.31
2022-11-05T00:14:40.027Z,92.17
2022-11-05T00:17:43.609Z,92.73
2022-11-05T00:20:46.384Z,92.51
2022-11-05T00:24:07.677Z,92.84
2022-11-05T00:27:10.899Z,92.48
2022-11-05T00:30:19.459Z,92.01
2022-11-05T00:33:22.287Z,92.81
2022-11-05T00:36:25.073Z,91.62
2022-11-05T00:39:27.984Z,92.35
2022-11-05T00:42:49.337Z,92.02
2022-11-05T00:45:52.180Z,92.56
2022-11-05T00:49:17.997Z,91.82
2022-11-05T00:52:39.371Z,91.87
2022-11-05T00:55:45.104Z,92.26
2022-11-05T00:58:49.117Z,92.17
2022-11-05T01:01:52.209Z,92.97
2022-11-05T01:04:55.283Z,91.67
2022-11-05T01:07:58.317Z,91.58
2022-11-05T01:11:12.497Z,91.53
2022-11-05T01:14:16.469Z,91.67
2022-11-05T01:17:19.419Z,91.61
2022-11-05T01:20:22.707Z,92.34
2022-11-05T01:23:25.576Z,91.89
2022-11-05T01:26:28.521Z,92.11
2022-11-05T01:29:31.438Z,91.67
2022-11-05T01:32:35.778Z,91.61
2022-11-05T01:35:39.612Z,92.32
2022-11-05T01:38:42.687Z,91.93
2022-11-05T01:41:45.472Z,92.05
2022-11-05T01:45:01.891Z,92.21
2022-11-05T01:48:34.715Z,91.75
2022-11-05T01:51:37.642Z,92.87
2022-11-05T01:54:40.764Z,92.81
2022-11-05T01:57:43.598Z,93.29
2022-11-05T02:00:46.534Z,93.95
2022-11-05T02:03:51.612Z,93.96
2022-11-05T02:06:54.791Z,94.27
2022-11-05T02:10:07.825Z,94.52
2022-11-05T02:13:10.757Z,94.47
2022-11-05T02:16:30.156Z,94.70
2022-11-05T02:19:39.125Z,95.01
2022-11-05T02:23:08.301Z,94.95
2022-11-05T02:26:36.209Z,95.04
2022-11-05T02:30:03.929Z,95.28
2022-11-05T02:33:22.657Z,94.93
2022-11-05T02:36:47.435Z,94.45
2022-11-05T02:39:53.741Z,95.03
2022-11-05T02:43:21.827Z,94.93
2022-11-05T02:46:43.035Z,94.83
2022-11-05T02:49:58.377Z,94.18
2022-11-05T02:53:20.031Z,94.34
2022-11-05T02:56:35.282Z,94.16
2022-11-05T02:59:38.205Z,94.36
2022-11-05T03:02:41.550Z,93.94
2022-11-05T03:06:00.540Z,94.21
2022-11-05T03:09:06.305Z,94.08
2022-11-05T03:12:27.592Z,94.44
2022-11-05T03:15:40.974Z,94.45
2022-11-05T03:18:55.103Z,94.34
2022-11-05T03:22:08.955Z,94.28
2022-11-05T03:25:16.593Z,94.08
2022-11-05T03:28:22.541Z,94.44
2022-11-05T03:31:25.751Z,94.21
2022-11-05T03:34:32.755Z,94.32
2022-11-05T03:37:38.135Z,93.78
2022-11-05T03:40:41.943Z,93.64
2022-11-05T03:43:48.561Z,93.67
2022-11-05T03:46:53.448Z,93.70
2022-11-05T03:50:12.161Z,92.52
2022-11-05T03:53:18.575Z,92.67
2022-11-05T03:56:28.139Z,92.67
2022-11-05T03:59:31.916Z,93.25
2022-11-05T04:02:35.238Z,93.19
2022-11-05T04:05:38.081Z,92.90
2022-11-05T04:08:59.564Z,92.53
2022-11-05T04:12:20.717Z,92.78
2022-11-05T04:15:23.644Z,92.83
2022-11-05T04:18:26.461Z,92.98
2022-11-05T04:21:47.784Z,92.96
2022-11-05T04:24:50.567Z,93.35
2022-11-05T04:27:53.544Z,93.55
2022-11-05T04:30:56.956Z,93.91
2022-11-05T04:33:59.855Z,94.65
2022-11-05T04:37:02.596Z,94.38
2022-11-05T04:40:06.079Z,94.55
2022-11-05T04:43:14.714Z,94.63
2022-11-05T04:46:18.242Z,94.94
2022-11-05T04:49:21.091Z,95.38
2022-11-05T04:52:23.895Z,95.11
2022-11-05T04:55:27.266Z,95.56
2022-11-05T04:58:30.321Z,95.34
2022-11-05T05:01:33.285Z,95.60
2022-11-05T05:04:36.298Z,95.10
2022-11-05T05:07:39.170Z,95.31
2022-11-05T05:10:42.284Z,95.04
2022-11-05T05:13:45.191Z,95.05
2022-11-05T05:16:48.036Z,95.10
2022-11-05T05:20:09.670Z,95.06
2022-11-05T05:23:12.842Z,95.18
2022-11-05T05:26:16.821Z,95.00
2022-11-05T05:29:19.836Z,95.18
2022-11-05T05:32:23.226Z,95.37
2022-11-05T05:35:25.978Z,95.60
2022-11-05T05:38:29.865Z,95.90
2022-11-05T05:41:33.042Z,96.01
2022-11-05T05:44:35.831Z,95.93
2022-11-05T05:47:38.926Z,96.32
2022-11-05T05:50:41.813Z,96.25
2022-11-05T05:53:44.768Z,96.44
2022-11-05T05:56:47.628Z,96.60
2022-11-05T05:59:50.741Z,96.88
2022-11-05T06:02:56.180Z,96.79
2022-11-05T06:06:10.375Z,96.92
2022-11-05T06:09:14.388Z,97.12
2022-11-05T06:12:17.138Z,96.70
2022-11-05T06:15:20.624Z,96.65
2022-11-05T06:18:23.378Z,96.59
2022-11-05T06:21:26.314Z,96.05
2022-11-05T06:24:29.155Z,95.97
2022-11-05T06:27:32.010Z,96.08
2022-11-05T06:30:35.049Z,95.52
2022-11-05T06:33:38.374Z,95.20
2022-11-05T06:36:41.356Z,95.06
2022-11-05T06:39:44.301Z,94.94
2022-11-05T06:42:47.501Z,94.27
2022-11-05T06:45:50.318Z,94.35
2022-11-05T06:48:53.398Z,93.90
2022-11-05T06:51:56.446Z,92.97
2022-11-05T06:55:00.338Z,92.94
2022-11-05T06:58:05.059Z,92.95
2022-11-05T07:01:09.974Z,92.34
2022-11-05T07:04:13.336Z,91.44
2022-11-05T07:07:16.207Z,91.52
2022-11-05T07:10:19.393Z,90.66
2022-11-05T07:13:22.408Z,90.49
2022-11-05T07:16:25.271Z,90.12
2022-11-05T07:19:28.358Z,89.79
2022-11-05T07:22:31.766Z,90.35
2022-11-05T07:25:35.608Z,89.83
2022-11-05T07:28:39.560Z,90.55
2022-11-05T07:31:44.927Z,89.80
2022-11-05T07:34:50.005Z,88.93
2022-11-05T07:37:57.905Z,89.43
2022-11-05T07:41:04.516Z,88.83
2022-11-05T07:44:09.036Z,89.58
2022-11-05T07:47:11.938Z,89.47
2022-11-05T07:50:16.529Z,88.54
2022-11-05T07:53:21.166Z,88.04
2022-11-05T07:56:24.156Z,87.98
2022-11-05T07:59:32.695Z,87.78
2022-11-05T08:02:39.898Z,87.46
2022-11-05T08:05:44.962Z,86.92
2022-11-05T08:08:47.976Z,87.47
2022-11-05T08:11:53.037Z,87.24
2022-11-05T08:14:56.201Z,87.51
2022-11-05T08:18:00.557Z,87.33
2022-11-05T08:21:05.141Z,86.24
2022-11-05T08:24:08.309Z,87.11
2022-11-05T08:27:11.284Z,86.48
2022-11-05T08:30:15.442Z,86.79
2022-11-05T08:33:18.751Z,86.18
2022-11-05T08:36:21.709Z,86.73
2022-11-05T08:39:25.886Z,85.59
2022-11-05T08:42:29.001Z,85.85
2022-11-05T08:45:31.966Z,84.56
2022-11-05T08:48:38.480Z,85.32
2022-11-05T08:51:46.479Z,84.42
2022-11-05T08:54:50.197Z,84.38
2022-11-05T08:58:00.094Z,83.71
2022-11-05T09:01:05.583Z,83.74
2022-11-05T09:04:08.907Z,82.69
2022-11-05T09:07:15.015Z,84.10
2022-11-05T09:10:18.887Z,83.37
2022-11-05T09:13:25.381Z,83.87
2022-11-05T09:16:30.453Z,82.83
2022-11-05T09:19:39.795Z,82.68
2022-11-05T09:22:43.678Z,82.35
2022-11-05T09:25:47.095Z,81.66
2022-11-05T09:28:50.309Z,82.57
2022-11-05T09:31:54.830Z,82.61
2022-11-05T09:34:57.714Z,83.43
2022-11-05T09:38:01.350Z,82.26
2022-11-05T09:41:05.607Z,81.92
2022-11-05T09:44:22.815Z,81.84
2022-11-05T09:47:30.634Z,82.29
2022-11-05T09:50:41.468Z,81.63
2022-11-05T09:53:45.760Z,82.18
2022-11-05T09:56:48.545Z,81.90
2022-11-05T09:59:57.559Z,81.70
2022-11-05T10:03:16.196Z,81.27
2022-11-05T10:06:24.296Z,80.57
2022-11-05T10:09:33.818Z,79.92
2022-11-05T10:12:42.774Z,79.25
2022-11-05T10:16:23.213Z,78.53
2022-11-05T10:19:31.172Z,78.70
2022-11-05T10:22:34.045Z,79.23
2022-11-05T10:25:40.007Z,79.81
2022-11-05T10:28:42.968Z,78.17
2022-11-05T10:31:45.911Z,79.03
2022-11-05T10:34:50.199Z,78.51
2022-11-05T10:37:56.378Z,80.12
2022-11-05T10:41:29.611Z,78.68
2022-11-05T10:44:53.759Z,78.40
2022-11-05T10:48:10.202Z,78.26
2022-11-05T10:51:13.163Z,79.31
2022-11-05T10:54:22.590Z,79.70
2022-11-05T10:57:36.401Z,79.76
2022-11-05T11:00:39.754Z,79.43
2022-11-05T11:03:48.493Z,79.29
2022-11-05T11:06:53.997Z,79.59
2022-11-05T11:09:57.177Z,79.00
2022-11-05T11:13:00.254Z,79.63
2022-11-05T11:16:16.406Z,79.97
2022-11-05T11:19:39.720Z,78.49
2022-11-05T11:22:42.531Z,78.73
2022-11-05T11:25:52.305Z,77.60
2022-11-05T11:29:36.482Z,77.08
2022-11-05T11:32:40.478Z,77.99
2022-11-05T11:35:46.370Z,76.90
2022-11-05T11:38:49.208Z,77.25
2022-11-05T11:41:54.665Z,75.89
2022-11-05T11:44:59.479Z,76.56
2022-11-05T11:48:06.330Z,76.71
2022-11-05T11:51:49.765Z,76.56
2022-11-05T11:54:53.443Z,77.09
2022-11-05T11:58:07.335Z,76.71
2022-11-05T12:01:34.130Z,76.92
2022-11-05T12:05:01.766Z,76.18
2022-11-05T12:08:45.367Z,76.51
2022-11-05T12:12:12.495Z,77.49
2022-11-05T12:15:39.617Z,77.36
2022-11-05T12:18:49.667Z,76.26
2022-11-05T12:22:02.734Z,77.03
2022-11-05T12:25:21.959Z,76.78
2022-11-05T12:29:17.251Z,76.47
2022-11-05T12:32:46.103Z,76.67
2022-11-05T12:36:00.496Z,76.40
2022-11-05T12:39:06.612Z,75.73
2022-11-05T12:42:24.401Z,76.13
2022-11-05T12:45:59.558Z,75.40
2022-11-05T12:49:31.303Z,75.21
2022-11-05T12:53:12.042Z,76.31
2022-11-05T12:56:36.489Z,76.07
2022-11-05T12:59:55.740Z,76.08
2022-11-05T13:03:22.832Z,77.07
2022-11-05T13:06:33.202Z,76.63
2022-11-05T13:09:42.250Z,76.71
2022-11-05T13:12:47.144Z,76.40
2022-11-05T13:16:00.036Z,76.28
2022-11-05T13:19:08.086Z,75.60
2022-11-05T13:22:30.714Z,76.44
2022-11-05T13:25:39.010Z,76.02
2022-11-05T13:28:58.102Z,75.62
2022-11-05T13:32:35.729Z,74.48
2022-11-05T13:35:45.828Z,74.81
2022-11-05T13:38:59.717Z,74.05
2022-11-05T13:42:05.743Z,74.70
2022-11-05T13:45:35.126Z,75.12
2022-11-05T13:48:56.535Z,74.38
2022-11-05T13:52:22.219Z,74.85
2022-11-05T13:55:37.022Z,75.52
2022-11-05T13:58:52.987Z,75.28
2022-11-05T14:02:02.108Z,75.30
2022-11-05T14:05:05.775Z,76.19
2022-11-05T14:08:11.456Z,76.13
2022-11-05T14:11:20.534Z,76.66
2022-11-05T14:14:27.958Z,77.64
2022-11-05T14:17:55.865Z,77.67
2022-11-05T14:21:04.037Z,78.31
2022-11-05T14:24:22.295Z,78.63
2022-11-05T14:27:37.313Z,78.87
2022-11-05T14:30:47.532Z,79.24
2022-11-05T14:34:10.410Z,79.20
2022-11-05T14:37:21.163Z,79.17
2022-11-05T14:40:33.356Z,79.94
2022-11-05T14:43:37.198Z,78.91
2022-11-05T14:46:42.305Z,79.76
2022-11-05T14:49:54.714Z,80.59
2022-11-05T14:53:10.689Z,79.58
2022-11-05T14:56:15.940Z,79.68
2022-11-05T14:59:24.936Z,80.05
2022-11-05T15:02:37.343Z,80.18
2022-11-05T15:05:50.333Z,80.29
2022-11-05T15:09:05.827Z,81.07
2022-11-05T15:12:19.900Z,80.85
2022-11-05T15:15:28.092Z,80.77
2022-11-05T15:18:39.180Z,81.34
2022-11-05T15:21:43.879Z,82.01
2022-11-05T15:24:49.541Z,81.59
2022-11-05T15:28:08.351Z,81.66
2022-11-05T15:31:16.336Z,82.86
2022-11-05T15:34:23.999Z,82.58
2022-11-05T15:37:29.014Z,82.10
2022-11-05T15:40:33.459Z,82.30
2022-11-05T15:43:36.320Z,82.46
2022-11-05T15:46:39.390Z,82.26
2022-11-05T15:49:44.812Z,82.25
2022-11-05T15:52:54.139Z,82.68
2022-11-05T15:56:01.094Z,82.44
2022-11-05T15:59:07.051Z,82.66
2022-11-05T16:02:24.171Z,82.71
2022-11-05T16:05:30.736Z,82.37
2022-11-05T16:08:34.990Z,82.52
2022-11-05T16:11:40.823Z,83.02
2022-11-05T16:14:44.493Z,82.70
2022-11-05T16:17:58.033Z,82.70
2022-11-05T16:21:08.481Z,82.35
2022-11-05T16:24:29.080Z,82.48
2022-11-05T16:27:33.976Z,82.92
2022-11-05T16:30:38.281Z,82.54
2022-11-05T16:33:45.809Z,82.87
2022-11-05T16:36:49.498Z,83.02
2022-11-05T16:39:54.015Z,83.33
2022-11-05T16:43:09.696Z,82.90
2022-11-05T16:46:15.892Z,83.76
2022-11-05T16:49:19.310Z,83.34
2022-11-05T16:52:22.821Z,83.42
2022-11-05T16:55:25.708Z,83.02
2022-11-05T16:58:29.392Z,83.12
2022-11-05T17:01:32.981Z,82.94
2022-11-05T17:04:37.063Z,82.81
2022-11-05T17:07:43.263Z,83.17
2022-11-05T17:10:46.911Z,83.67
2022-11-05T17:13:50.271Z,83.52
2022-11-05T17:16:53.518Z,83.66
2022-11-05T17:19:56.894Z,83.85
2022-11-05T17:23:03.577Z,83.99
2022-11-05T17:26:11.330Z,83.79
2022-11-05T17:29:14.758Z,83.75
2022-11-05T17:32:18.073Z,84.02
2022-11-05T17:35:21.571Z,84.37
2022-11-05T17:38:26.111Z,84.03
2022-11-05T17:41:29.148Z,84.68
2022-11-05T17:44:32.271Z,84.69
2022-11-05T17:47:35.563Z,83.85
2022-11-05T17:50:51.744Z,83.81
2022-11-05T17:53:54.770Z,84.13
2022-11-05T17:56:58.997Z,83.40
2022-11-05T18:00:04.194Z,83.69
2022-11-05T18:03:07.404Z,83.83
2022-11-05T18:06:10.727Z,83.36
2022-11-05T18:09:15.272Z,82.95
2022-11-05T18:12:22.289Z,82.71
2022-11-05T18:15:26.487Z,83.07
2022-11-05T18:18:30.418Z,82.95
2022-11-05T18:21:34.197Z,82.57
2022-11-05T18:24:37.384Z,82.69
2022-11-05T18:27:40.840Z,83.13
2022-11-05T18:30:44.033Z,82.96
2022-11-05T18:33:48.504Z,82.34
2022-11-05T18:36:56.361Z,82.65
2022-11-05T18:39:59.648Z,82.57
2022-11-05T18:43:02.701Z,82.04
2022-11-05T18:46:15.629Z,82.67
2022-11-05T18:49:30.351Z,82.56
2022-11-05T18:52:33.963Z,82.40
2022-11-05T18:55:39.987Z,82.14
2022-11-05T18:58:43.548Z,82.45
2022-11-05T19:01:47.867Z,82.72
2022-11-05T19:05:21.919Z,82.33
2022-11-05T19:08:16.247Z,81.49
2022-11-05T19:11:22.089Z,81.52
2022-11-05T19:14:25.393Z,81.27
2022-11-05T19:17:29.628Z,80.86
2022-11-05T19:20:37.834Z,81.46
2022-11-05T19:23:43.080Z,81.57
2022-11-05T19:26:47.767Z,81.47
2022-11-05T19:29:51.006Z,81.57
2022-11-05T19:32:54.101Z,82.11
2022-11-05T19:36:01.396Z,81.48
2022-11-05T19:39:11.589Z,81.53
2022-11-05T19:42:15.176Z,81.20
2022-11-05T19:45:45.565Z,81.53
2022-11-05T19:48:41.934Z,81.88
2022-11-05T19:51:45.812Z,81.59
2022-11-05T19:54:49.396Z,81.55
2022-11-05T19:57:55.157Z,81.34
2022-11-05T20:00:58.548Z,81.49
2022-11-05T20:04:03.164Z,81.57
2022-11-05T20:07:07.743Z,82.31
2022-11-05T20:10:11.855Z,81.93
2022-11-05T20:13:19.796Z,81.69
2022-11-05T20:16:28.901Z,81.48
2022-11-05T20:19:32.429Z,81.21
2022-11-05T20:22:35.645Z,81.12
2022-11-05T20:25:38.935Z,80.63
2022-11-05T20:28:44.021Z,80.72
2022-11-05T20:31:46.978Z,81.37
2022-11-05T20:34:53.377Z,81.03
2022-11-05T20:37:56.628Z,81.34
2022-11-05T20:41:08.300Z,81.03
2022-11-05T20:44:11.160Z,81.39
2022-11-05T20:47:14.263Z,81.00
2022-11-05T20:50:17.454Z,80.88
2022-11-05T20:53:21.048Z,80.71
2022-11-05T20:56:32.866Z,81.01
2022-11-05T20:59:35.909Z,80.77
2022-11-05T21:02:41.736Z,80.85
2022-11-05T21:05:49.690Z,80.76
2022-11-05T21:08:54.147Z,80.83
2022-11-05T21:12:12.627Z,80.89
2022-11-05T21:15:15.634Z,81.15
2022-11-05T21:18:24.375Z,80.89
2022-11-05T21:21:27.544Z,80.83
2022-11-05T21:24:32.368Z,81.23
2022-11-05T21:27:36.476Z,81.45
2022-11-05T21:30:45.840Z,81.82
2022-11-05T21:33:53.979Z,82.00
2022-11-05T21:37:01.421Z,82.26
2022-11-05T21:40:05.186Z,82.38
2022-11-05T21:43:12.205Z,82.31
2022-11-05T21:46:15.834Z,81.92
2022-11-05T21:49:19.550Z,82.06
2022-11-05T21:52:41.005Z,81.29
2022-11-05T21:56:02.640Z,81.62
2022-11-05T21:59:25.132Z,81.22
2022-11-05T22:02:31.284Z,80.94
2022-11-05T22:05:34.217Z,80.98
2022-11-05T22:08:37.186Z,80.67
2022-11-05T22:11:42.997Z,80.70
2022-11-05T22:14:46.764Z,80.96
2022-11-05T22:17:52.698Z,80.84
2022-11-05T22:20:55.771Z,80.64
2022-11-05T22:23:58.884Z,80.34
2022-11-05T22:27:04.633Z,80.85
2022-11-05T22:30:07.736Z,80.63
2022-11-05T22:33:11.052Z,80.16
2022-11-05T22:36:14.018Z,80.15
2022-11-05T22:39:17.436Z,80.26
2022-11-05T22:42:21.177Z,80.37
2022-11-05T22:45:24.259Z,79.87
2022-11-05T22:48:27.143Z,80.28
2022-11-05T22:51:32.573Z,80.32
2022-11-05T22:54:39.259Z,80.07
2022-11-05T22:57:42.536Z,80.75
2022-11-05T23:00:45.391Z,80.90
2022-11-05T23:03:49.641Z,80.73
2022-11-05T23:07:10.953Z,81.59
2022-11-05T23:10:32.400Z,81.12
2022-11-05T23:13:35.535Z,81.16
2022-11-05T23:16:57.123Z,81.21
2022-11-05T23:20:11.870Z,80.89
2022-11-05T23:23:33.345Z,81.08
2022-11-05T23:26:53.012Z,81.11
2022-11-05T23:30:00.349Z,81.34
2022-11-05T23:33:03.023Z,81.59
2022-11-05T23:36:24.783Z,81.14
2022-11-05T23:39:30.945Z,81.29
2022-11-05T23:42:52.336Z,82.21
2022-11-05T23:45:55.097Z,82.19
2022-11-05T23:49:01.044Z,81.94
2022-11-05T23:52:04.096Z,81.66
2022-11-05T23:55:07.314Z,81.90
2022-11-05T23:58:11.239Z,82.65
